Weather observations for the past three days for
Sylvania, Plantation Airpark
Imperial (Metric)
Date Time (edt) Wind (mph) Vis. (mi.) Weather Sky Cond. Temperature (ºF) Relative Humidity Wind Chill (°F) Heat Index (°F) Pressure Precipitation (in)
Air Dwpt 6 hour altimeter (in) sea level (mb) 1 hr 3 hr 6 hr
Max. Min.
10 14:15 N 5 5.00 Haze NULL 81.3 61 50% 82 30.01 0.0
10 13:55 W 5 5.00 Haze NULL 82 61.7 82 63.7 50% 83 30.01 0.0
10 13:35 NW 7 4.00 Haze NULL 81.1 60.4 49% 82 30.02 0.0
10 13:15 N 6 4.00 Haze NULL 80.1 60.1 51% 81 30.03 0.0
10 12:55 E 3 4.00 Haze NULL 79.7 61 53% 81 30.03 0.0
10 12:35 W 5 5.00 Haze NULL 79.2 60.4 53% 80 30.04 0.0
10 12:15 Calm 4.00 Haze NULL 77.5 60.4 56% 79 30.04 0.0
10 11:55 SW 5 5.00 Haze NULL 77.2 60.6 57% 79 30.04 0.0
10 11:35 Calm 5.00 Haze NULL 77.4 62.8 61% 79 30.04 0.0
10 11:15 W 5 5.00 Haze NULL 75.7 61.7 62% 78 30.04 0.0
10 10:55 N 6 5.00 Haze NULL 75.4 62.8 65% 77 30.04 0.0
10 10:35 N 5 5.00 Haze NULL 73.9 62.4 67% 30.03 0.0
10 10:15 N 6 4.00 Haze NULL 73.2 63.3 71% 30.03 0.0
10 09:55 NW 6 5.00 Haze NULL 72.1 63.7 75% 30.03 0.0
10 09:35 N 7 5.00 Fog/Mist NULL 70.3 65.7 85% 30.03 0.0
10 09:15 NW 5 4.00 Fog/Mist NULL 69.1 67.3 94% 30.03 0.0
10 08:55 NW 3 4.00 Fog/Mist NULL 67.6 67.6 100% 30.04 0.0
10 08:35 NW 5 5.00 Fog/Mist NULL 66.4 66.4 100% 30.03 0.0
10 08:15 NW 3 3.00 Fog/Mist NULL 64.9 64.9 100% 30.03 0.0
10 07:55 Calm 4.00 Fog/Mist NULL 63.5 63.5 63.9 62.6 100% 30.02 0.0
10 07:35 Calm 4.00 Fog/Mist NULL 62.8 62.8 100% 30.01 0.0
10 07:15 Calm 4.00 Fog/Mist NULL 62.6 62.6 100% 30.01 0.0
10 06:55 Calm 4.00 Fog/Mist NULL 62.6 62.6 100% 30.01 0.0
10 06:35 Calm 5.00 Fog/Mist NULL 62.8 62.8 100% 30 0.0
10 06:15 Calm 7.00 NULL NULL 63 63 100% 29.99 0.0
10 05:55 Calm 5.00 Fog/Mist NULL 63.1 63.1 100% 29.99 0.0
10 05:35 W 3 5.00 Fog/Mist NULL 63.1 63.1 100% 29.99 0.0
10 05:15 Calm 7.00 NULL NULL 63.1 63.1 100% 29.99 0.0
10 04:55 Calm 3.00 Fog/Mist NULL 63.5 63.5 100% 29.98 0.0
10 04:35 Calm 7.00 NULL NULL 63.1 63.1 100% 29.96 0.0
10 04:15 Calm 7.00 NULL NULL 63.5 63.5 100% 29.95 0.0
10 03:55 Calm 5.00 Fog/Mist NULL 63.5 63.5 100% 29.94 0.0
10 03:35 Calm 5.00 Fog/Mist NULL 63.5 63.5 100% 29.95 0.0
10 03:15 Calm 7.00 NULL NULL 63.5 63.5 100% 29.95 0.0
10 02:55 Calm 5.00 Fog/Mist NULL 63.7 63.7 100% 29.94 0.0
10 02:35 Calm 5.00 Fog/Mist NULL 63.7 63.7 100% 29.95 0.0
10 02:15 Calm 7.00 NULL NULL 63.7 63.7 100% 29.96 0.0
10 01:55 Calm 7.00 NULL NULL 63.9 63.9 68.5 63.9 100% 29.96 0.0
10 01:35 Calm 7.00 NULL NULL 63.9 63.9 100% 29.96 0.0
10 01:15 Calm 7.00 NULL NULL 64 64 100% 29.96 0.0
10 00:55 W 3 7.00 NULL NULL 64.4 64.4 100% 29.97 0.0
10 00:35 Calm 7.00 NULL NULL 64.4 64.4 100% 29.96 0.0
10 00:15 Calm 7.00 NULL NULL 64.4 64.4 100% 29.96 0.0
09 23:55 W 3 7.00 NULL NULL 64.4 64.4 100% 29.96 0.0
09 23:35 W 5 5.00 Fog/Mist NULL 64.6 64.6 100% 29.95 0.0
09 23:15 W 5 5.00 Fog/Mist NULL 64.6 64.6 100% 29.96 0.0
09 22:55 W 5 7.00 NULL NULL 64.8 64.8 100% 29.96 0.0
09 22:35 W 5 7.00 NULL NULL 64.9 64.9 100% 29.96 0.0
09 22:15 W 3 7.00 NULL NULL 65.3 65.3 100% 29.96 0.0
09 21:55 W 3 7.00 NULL NULL 65.5 65.5 100% 29.95 0.0
09 21:35 W 3 7.00 NULL NULL 65.7 65.7 100% 29.94 0.0
09 21:15 SW 3 5.00 Fog/Mist NULL 66.2 66.2 100% 29.93 0.0
09 20:55 Calm 5.00 Fog/Mist NULL 66.7 66.7 100% 29.92 0.0
09 20:35 Calm 5.00 Fog/Mist NULL 67.3 67.1 99% 29.92 0.0
09 20:15 Calm 5.00 Fog/Mist NULL 68 66.4 95% 29.91 0.0
09 19:55 W 5 5.00 Fog/Mist NULL 68.7 65.5 73.8 68.7 89% 29.92 0.0
09 19:35 W 3 4.00 Fog/Mist NULL 69.1 64.9 87% 29.91 0.0
09 19:15 W 5 5.00 Haze NULL 69.4 65.3 87% 29.9 0.0
09 18:55 W 6 5.00 Haze NULL 69.8 64.8 84% 29.9 0.0
09 18:35 W 3 5.00 Fog/Mist NULL 70 65.5 86% 29.89 0.0
09 18:15 W 5 4.00 Haze NULL 70.7 64.6 81% 29.9 0.0
09 17:55 W 7 3.00 Haze NULL 70.7 64 80% 29.89 0.0
09 17:35 W 6 5.00 Haze NULL 71.2 64.8 80% 29.89 0.0
09 17:15 W 5 4.00 Haze NULL 71.4 65.3 81% 29.9 0.0
09 16:55 W 6 4.00 Haze NULL 71.4 64.4 79% 29.9 0.0
09 16:35 W 5 4.00 Haze NULL 71.6 65.7 82% 29.9 0.0
09 16:15 W 5 5.00 Haze NULL 70.9 66 85% 29.91 0.0
09 15:55 SW 3 5.00 Fog/Mist NULL 70.3 65.8 86% 29.9 0.0
09 15:35 W 7 5.00 Haze NULL 70.7 64.8 82% 29.92 0.0
09 15:15 W 8 5.00 Haze NULL 71.1 66 84% 29.92 0.0
09 14:55 W 7 4.00 Haze NULL 71.1 66.4 85% 29.93 0.0
09 14:35 W 7 5.00 Haze NULL 71.2 65.7 83% 29.93 0.0
09 14:15 W 6 4.00 Haze NULL 72.3 65.8 80% 29.93 0.0
09 13:55 W 5 5.00 Haze NULL 73.6 66.4 74.8 61.3 78% 29.93 0.0
09 13:35 SW 6 5.00 Haze NULL 72.5 65.5 79% 29.91 0.0
09 13:15 W 7 5.00 Mostly Cloudy with Haze SCT032 BKN037 72.7 64.9 77% 29.91 0.0
09 12:55 NW 6 5.00 Mostly Cloudy with Haze SCT028 BKN037 73.2 64.9 75% 29.92 0.0
09 12:35 N 5 4.00 Haze NULL 72.3 65.1 78% 29.93 0.0
09 12:15 NW 5 5.00 Haze NULL 73.4 64.9 75% 29.94 0.0
09 11:55 W 6 5.00 Haze NULL 73.6 65.3 75% 29.94 0.0
09 11:35 W 9 G 16 5.00 Haze NULL 74.7 65.1 72% 29.92 0.0
09 11:15 SW 8 4.00 Haze NULL 73 66.4 80% 29.92 0.0
09 10:55 SW 9 3.00 Fog/Mist NULL 70.7 67.6 90% 29.94 0.0
09 10:35 SW 8 5.00 Fog/Mist NULL 68 68 100% 29.95 0.0
09 10:15 S 3 5.00 Fog/Mist NULL 66.4 66.4 100% 29.95 0.0
09 09:55 SW 5 4.00 Fog/Mist NULL 64.6 64.6 100% 29.95 0.0
09 09:35 Calm 3.00 Fog/Mist NULL 63.5 63.5 100% 29.95 0.0
09 09:15 Calm 3.00 Fog/Mist NULL 63 63 100% 29.95 0.0
09 08:55 Calm 1.75 Fog/Mist NULL 62.6 62.6 100% 29.95 0.0
09 08:35 Calm 0.50 Fog NULL 62.4 62.4 100% 29.95 0.0
09 08:15 Calm 0.25 Fog NULL 61.7 61.7 100% 29.95 0.0
09 07:55 Calm 0.25 Fog NULL 61.2 61.2 61.3 58.6 100% 29.95 0.0
09 07:35 Calm 0.75 Fog/Mist NULL 61 61 100% 29.94 0.0
09 07:15 Calm 3.00 Fog/Mist NULL 60.8 60.8 100% 29.94 0.0
09 06:55 Calm 4.00 Fog/Mist NULL 59.9 59.9 100% 29.92 0.0
09 06:35 Calm 5.00 Fog/Mist NULL 59.5 59.5 100% 29.93 0.0
09 06:15 Calm 5.00 Fog/Mist NULL 59.9 59.9 100% 29.92 0.0
09 05:55 Calm 5.00 Fog/Mist NULL 59.5 59.5 100% 29.91 0.0
09 05:35 Calm 5.00 Fog/Mist NULL 59 59 100% 29.9 0.0
09 05:15 Calm 4.00 Fog/Mist NULL 59 59 100% 29.9 0.0
09 04:55 Calm 4.00 Fog/Mist NULL 59 59 100% 29.91 0.0
09 04:35 Calm 4.00 Fog/Mist NULL 59.2 59.2 100% 29.92 0.0
09 04:15 Calm 4.00 Fog/Mist NULL 60.1 60.1 100% 29.92 0.0
09 03:55 Calm 5.00 Fog/Mist NULL 60.1 60.1 100% 29.91 0.0
09 03:35 Calm 5.00 Fog/Mist NULL 60.4 60.4 100% 29.92 0.0
09 03:15 Calm 5.00 Fog/Mist NULL 60.8 60.8 100% 29.94 0.0
09 02:55 Calm 5.00 Fog/Mist NULL 60.8 60.8 100% 29.94 0.0
09 02:35 Calm 5.00 Fog/Mist NULL 61.2 61.2 100% 29.93 0.0
09 02:15 Calm 5.00 Fog/Mist NULL 61.2 61.2 100% 29.94 0.0
09 01:55 Calm 5.00 Fog/Mist NULL 61.3 61.3 66.7 61.3 100% 29.94 0.0
09 01:35 Calm 5.00 Fog/Mist NULL 61.7 61.7 100% 29.95 0.0
09 01:15 Calm 5.00 Fog/Mist NULL 61.9 61.9 100% 29.98 0.0
09 00:55 S 3 5.00 Fog/Mist NULL 62.2 62.2 100% 29.96 0.0
09 00:35 SW 5 7.00 NULL NULL 62.4 62.4 100% 29.98 0.0
09 00:15 S 6 5.00 Fog/Mist NULL 62.2 62.2 100% 29.98 0.0
08 23:55 Calm 5.00 Fog/Mist NULL 62.6 62.6 100% 30 0.0
08 23:35 Calm 7.00 NULL NULL 62.8 62.8 100% 30.01 0.0
08 23:15 Calm 5.00 Fog/Mist NULL 63.3 62.8 98% 29.99 0.0
08 22:55 S 3 7.00 Light Drizzle NULL 63.5 62.4 96% 29.98 0.0
08 22:35 S 3 5.00 Fog/Mist NULL 63.7 61.7 93% 30 0.0
08 22:15 S 5 7.00 NULL NULL 63.7 61.5 93% 30 0.0
08 21:55 S 5 5.00 Fog/Mist NULL 64 61 90% 30.02 0.0
08 21:35 S 3 7.00 NULL NULL 64.4 60.4 87% 30.01 0.0
08 21:15 SW 5 5.00 Fog/Mist NULL 64.8 60.4 86% 30 0.0
08 20:55 S 3 7.00 NULL NULL 65.3 60.1 83% 29.99 0.0
08 20:35 Calm 7.00 NULL NULL 65.5 60.3 83% 29.99 0.0
08 20:15 S 7 5.00 Haze NULL 66.2 59.9 80% 29.99 0.0
08 19:55 S 3 5.00 Haze NULL 66.9 59.4 72.5 66.9 77% 29.98 0.0
08 19:35 SE 6 5.00 Haze NULL 68 58.6 72% 29.96 0.0
08 19:15 Calm 4.00 Haze NULL 69.3 56.7 64% 29.96 0.0
08 18:55 Calm 5.00 Haze NULL 69.8 56.1 62% 29.95 0.0
08 18:35 Calm 5.00 Haze NULL 70.3 55.6 60% 29.95 0.0
08 18:15 Calm 4.00 Haze NULL 70.7 54.3 56% 29.96 0.0
08 17:55 Calm 5.00 Haze NULL 70.7 54.5 57% 29.95 0.0
08 17:35 Calm 4.00 Haze NULL 70.7 54.3 56% 29.95 0.0
08 17:15 Calm 5.00 Haze NULL 70.9 54.7 57% 29.95 0.0
08 16:55 Calm 3.00 Partly Cloudy with Haze SCT120 70.7 54 56% 29.96 0.0
08 16:35 S 3 5.00 Fair with Haze CLR 70.7 53.1 54% 29.97 0.0
08 16:15 S 5 4.00 Haze NULL 70.9 53.1 53% 29.98 0.0
08 15:55 Calm 5.00 Haze NULL 71.6 53.4 53% 29.99 0.0
08 15:35 SW 5 4.00 Haze NULL 70.9 53.4 54% 29.99 0.0
08 15:15 S 3 5.00 Haze NULL 70.7 52.7 53% 29.99 0.0
08 14:55 S 3 5.00 Fair with Haze CLR 71.1 52.7 52% 30 0.0
08 14:35 Calm 4.00 Fair with Haze CLR 72.1 52.7 51% 30 0.0
08 14:15 Calm 5.00 Haze NULL 71.2 52.2 51% 30.01 0.0
08 13:55 S 7 4.00 Haze NULL 71.8 53.4 72 59 53% 30.01 0.0
08 13:35 E 5 4.00 Haze NULL 70.9 52.3 52% 30.02 0.0
08 13:15 NE 5 4.00 Haze NULL 70.7 52.2 52% 30.04 0.0
08 12:55 E 6 4.00 Fair with Haze CLR 70.7 52.7 53% 30.04 0.0
08 12:35 E 6 5.00 Fair with Haze CLR 69.1 51.4 54% 30.05 0.0
08 12:15 E 3 5.00 Haze NULL 68.4 52.5 57% 30.05 0.0
08 11:55 E 5 4.00 Haze NULL 67.8 53.2 60% 30.06 0.0
08 11:35 E 7 5.00 Haze NULL 66.4 51.8 60% 30.07 0.0
08 11:15 E 9 5.00 Haze NULL 64.6 51.6 63% 30.08 0.0
08 10:55 E 7 4.00 Fair with Haze CLR 64.2 52.7 66% 30.07 0.0
08 10:35 E 9 5.00 Fair with Haze CLR 63.5 52 66% 30.08 0.0
08 10:15 E 9 5.00 Haze NULL 63.5 54.1 72% 30.07 0.0
08 09:55 E 9 4.00 Haze NULL 62.8 53.8 73% 30.07 0.0
08 09:35 E 7 5.00 Haze NULL 61.7 54.3 77% 30.06 0.0
08 09:15 E 9 5.00 Haze NULL 60.8 55.8 84% 30.05 0.0
08 08:55 E 6 5.00 Fog/Mist NULL 59.9 57 90% 30.05 0.0
08 08:35 E 6 5.00 Fog/Mist NULL 59.4 58.1 96% 30.04 0.0
08 08:15 E 5 5.00 Fog/Mist NULL 59.4 58.1 96% 30.03 0.0
08 07:55 Calm 4.00 Fog/Mist NULL 59 58.8 62.6 58.3 99% 30.02 0.0
08 07:35 E 5 4.00 Fog/Mist NULL 58.6 58.5 99% 30.01 0.0
08 07:15 E 5 5.00 Fog/Mist NULL 58.5 58.3 99% 30.01 0.0
08 06:55 E 5 5.00 Fog/Mist NULL 58.5 58.5 100% 29.99 0.0
08 06:35 E 3 5.00 Fog/Mist NULL 58.3 58.3 100% 29.98 0.0
08 06:15 Calm 7.00 NULL NULL 59 59 100% 29.98 0.0
08 05:55 Calm 7.00 NULL NULL 59.2 59.2 100% 29.98 0.0
08 05:35 NE 6 7.00 NULL NULL 59.9 59.4 98% 29.96 0.0
08 05:15 NE 5 7.00 NULL NULL 60.1 59.4 97% 29.94 0.0
08 04:55 N 5 5.00 Fog/Mist NULL 60.3 60.3 100% 29.94 0.0
08 04:35 N 3 5.00 Fog/Mist NULL 60.4 60.4 100% 29.94 0.0
08 04:15 Calm 7.00 NULL NULL 61 61 100% 29.94 0.0
08 03:55 Calm 7.00 NULL NULL 61.3 61.3 100% 29.95 0.0
08 03:35 Calm 7.00 NULL NULL 61.3 61.3 100% 29.95 0.0
08 03:15 Calm 5.00 Fog/Mist NULL 61.9 61.9 100% 29.95 0.0
08 02:55 NW 3 7.00 NULL NULL 61.9 61.9 100% 29.95 0.0
08 02:35 NW 3 5.00 Fog/Mist NULL 62.1 62.1 100% 29.95 0.0
08 02:15 NW 3 7.00 NULL NULL 62.4 62.4 100% 29.95 0.0
08 01:55 NW 5 7.00 NULL NULL 62.6 62.6 71.8 62.6 100% 29.95 0.0
08 01:35 NW 3 7.00 NULL NULL 63.3 63.3 100% 29.95 0.0
08 01:15 N 5 7.00 NULL NULL 63.7 63.7 100% 29.94 0.0
08 00:55 N 5 7.00 NULL NULL 64.4 64.4 100% 29.94 0.0
08 00:35 N 7 7.00 NULL NULL 65.5 64.6 97% 29.94 0.0
08 00:15 N 9 5.00 Fog/Mist NULL 66.6 64.9 95% 29.93 0.0
07 23:55 N 8 7.00 NULL NULL 67.3 67.3 100% 29.93 0.0
07 23:35 NW 5 5.00 Fog/Mist NULL 67.5 67.5 100% 29.93 0.0
07 23:15 NW 7 7.00 NULL NULL 67.5 67.5 100% 29.92 0.0
07 22:55 Calm 5.00 Fog/Mist NULL 66.9 66.9 100% 29.91 0.0
07 22:35 Calm 5.00 Fog/Mist NULL 66.2 66.2 100% 29.9 0.0
07 22:15 Calm 5.00 Fog/Mist NULL 67.5 67.5 100% 29.89 0.0
07 21:55 Calm 5.00 Fog/Mist NULL 67.8 67.8 100% 29.89 0.0
07 21:35 Calm 7.00 NULL NULL 68.2 68.2 100% 29.88 0.0
07 21:15 Calm 7.00 NULL NULL 68.5 68.5 100% 29.87 0.0
07 20:55 Calm 5.00 Fog/Mist NULL 69.8 69.8 100% 29.87 0.0
07 20:35 W 3 5.00 Fog/Mist NULL 70.7 70.7 100% 29.86 0.0
07 20:15 W 5 5.00 Fog/Mist NULL 71.2 71.2 100% 29.86 0.0
07 19:55 W 3 5.00 Fog/Mist NULL 71.8 71.8 75.6 71.4 100% 29.86 0.0 0.02
07 19:35 W 7 5.00 Fog/Mist NULL 72.1 72.1 100% 29.85 0.0
07 19:15 NW 8 5.00 Fog/Mist NULL 71.8 71.8 100% 29.85 0.0
07 18:55 NW 9 5.00 Fog/Mist NULL 72.5 72.5 100% 29.85 0.0
07 18:35 NW 12 5.00 Fog/Mist NULL 72.1 72.1 100% 29.85 0.0
07 18:15 NW 15 5.00 Fog/Mist NULL 72.5 72.5 100% 29.84 0.0
07 17:55 NW 12 G 16 4.00 Fog/Mist NULL 73.4 73.4 100% 29.84 0.0
07 17:35 NW 10 4.00 Fog/Mist NULL 72.9 72.9 100% 29.84 0.0
07 17:15 NW 9 4.00 Fog/Mist NULL 72.9 72.9 100% 29.84 0.0
07 16:35 N 3 4.00 Fog/Mist NULL 72.7 72.7 100% 29.84 0.0
07 16:15 W 5 5.00 Fog/Mist NULL 72.3 72.3 100% 29.84 0.0
07 15:55 W 3 7.00 Light Rain NULL 71.4 71.4 100% 29.84 0.0 0.02
07 15:35 W 3 10.00 Rain SCT028 BKN035 OVC055 71.6 71.6 100% 29.85 0.0 0.02
07 15:15 W 7 7.00 Light Rain OVC033 71.8 71.8 100% 29.86 0.0 0.01
07 14:55 W 7 7.00 Light Rain NULL 73.2 71.4 94% 29.86 0.0
07 14:35 W 10 G 22 7.00 Thunderstorm Light Rain in Vicinity NULL 73.9 71.1 91% 29.86 0.0
Date Time (edt) Wind (mph) Vis. (mi.) Weather Sky Cond. Air Dwpt Max. Min. Relative Humidity Wind Chill (°F) Heat Index (°F) altimeter (in) sea level (mb) 1 hr 3 hr 6 hr
6 hour
Temperature (ºF) Pressure Precipitation (in)